sensor_id;sensor_type;location;lat;lon;timestamp;temperature;humidity
7648;DHT22;3866;48.020;11.720;2023-04-03T00:00:31;1.20;99.90
7648;DHT22;3866;48.020;11.720;2023-04-03T00:02:58;1.20;99.90
7648;DHT22;3866;48.020;11.720;2023-04-03T00:05:25;1.40;99.90
7648;DHT22;3866;48.020;11.720;2023-04-03T00:07:52;1.30;99.90
7648;DHT22;3866;48.020;11.720;2023-04-03T00:10:21;1.30;99.90
7648;DHT22;3866;48.020;11.720;2023-04-03T00:12:48;1.40;99.90
7648;DHT22;3866;48.020;11.720;2023-04-03T00:15:15;1.40;99.90
7648;DHT22;3866;48.020;11.720;2023-04-03T00:17:42;1.30;99.90
7648;DHT22;3866;48.020;11.720;2023-04-03T00:20:09;1.30;99.90
7648;DHT22;3866;48.020;11.720;2023-04-03T00:22:36;1.50;99.90
7648;DHT22;3866;48.020;11.720;2023-04-03T00:25:03;1.40;99.90
7648;DHT22;3866;48.020;11.720;2023-04-03T00:27:32;1.30;99.90
7648;DHT22;3866;48.020;11.720;2023-04-03T00:29:59;1.30;99.90
7648;DHT22;3866;48.020;11.720;2023-04-03T00:32:25;1.30;99.90
7648;DHT22;3866;48.020;11.720;2023-04-03T00:34:52;1.50;99.90
7648;DHT22;3866;48.020;11.720;2023-04-03T00:37:19;1.50;99.90
7648;DHT22;3866;48.020;11.720;2023-04-03T00:39:46;1.50;99.90
7648;DHT22;3866;48.020;11.720;2023-04-03T00:42:13;1.40;99.90
7648;DHT22;3866;48.020;11.720;2023-04-03T00:47:46;1.40;99.90
7648;DHT22;3866;48.020;11.720;2023-04-03T00:50:12;1.50;99.90
7648;DHT22;3866;48.020;11.720;2023-04-03T00:52:40;1.50;99.90
7648;DHT22;3866;48.020;11.720;2023-04-03T00:55:08;1.30;99.90
7648;DHT22;3866;48.020;11.720;2023-04-03T00:57:36;1.30;99.90
7648;DHT22;3866;48.020;11.720;2023-04-03T01:00:06;1.40;99.90
7648;DHT22;3866;48.020;11.720;2023-04-03T01:02:35;1.40;99.90
7648;DHT22;3866;48.020;11.720;2023-04-03T01:05:04;1.40;99.90
7648;DHT22;3866;48.020;11.720;2023-04-03T01:07:31;1.40;99.90
7648;DHT22;3866;48.020;11.720;2023-04-03T01:10:02;1.30;99.90
7648;DHT22;3866;48.020;11.720;2023-04-03T01:12:32;1.40;99.90
7648;DHT22;3866;48.020;11.720;2023-04-03T01:15:03;1.50;99.90
7648;DHT22;3866;48.020;11.720;2023-04-03T01:17:32;1.30;99.90
7648;DHT22;3866;48.020;11.720;2023-04-03T01:20:30;1.30;99.90
7648;DHT22;3866;48.020;11.720;2023-04-03T01:23:11;1.40;99.90
7648;DHT22;3866;48.020;11.720;2023-04-03T01:25:41;1.50;99.90
7648;DHT22;3866;48.020;11.720;2023-04-03T01:28:10;1.50;99.90
7648;DHT22;3866;48.020;11.720;2023-04-03T01:30:43;1.60;99.90
7648;DHT22;3866;48.020;11.720;2023-04-03T01:33:13;1.80;99.90
7648;DHT22;3866;48.020;11.720;2023-04-03T01:35:40;1.70;99.90
7648;DHT22;3866;48.020;11.720;2023-04-03T01:38:07;1.90;99.90
7648;DHT22;3866;48.020;11.720;2023-04-03T01:40:34;1.90;99.90
7648;DHT22;3866;48.020;11.720;2023-04-03T01:43:01;1.70;99.90
7648;DHT22;3866;48.020;11.720;2023-04-03T01:45:28;1.60;99.90
7648;DHT22;3866;48.020;11.720;2023-04-03T01:47:55;1.60;99.90
7648;DHT22;3866;48.020;11.720;2023-04-03T01:50:23;1.80;99.90
7648;DHT22;3866;48.020;11.720;2023-04-03T01:52:50;1.80;99.90
7648;DHT22;3866;48.020;11.720;2023-04-03T01:55:17;1.70;99.90
7648;DHT22;3866;48.020;11.720;2023-04-03T01:57:44;1.90;99.90
7648;DHT22;3866;48.020;11.720;2023-04-03T02:00:12;2.00;99.90
7648;DHT22;3866;48.020;11.720;2023-04-03T02:02:39;1.80;99.90
7648;DHT22;3866;48.020;11.720;2023-04-03T02:05:06;1.80;99.90
7648;DHT22;3866;48.020;11.720;2023-04-03T02:07:35;1.90;99.90
7648;DHT22;3866;48.020;11.720;2023-04-03T02:10:02;1.70;99.90
7648;DHT22;3866;48.020;11.720;2023-04-03T02:12:29;1.80;99.90
7648;DHT22;3866;48.020;11.720;2023-04-03T02:14:56;1.90;99.90
7648;DHT22;3866;48.020;11.720;2023-04-03T02:17:23;1.80;99.90
7648;DHT22;3866;48.020;11.720;2023-04-03T02:19:50;1.80;99.90
7648;DHT22;3866;48.020;11.720;2023-04-03T02:22:17;1.80;99.90
7648;DHT22;3866;48.020;11.720;2023-04-03T02:24:47;1.60;99.90
7648;DHT22;3866;48.020;11.720;2023-04-03T02:27:14;1.70;99.90
7648;DHT22;3866;48.020;11.720;2023-04-03T02:29:41;1.60;99.90
7648;DHT22;3866;48.020;11.720;2023-04-03T02:32:08;1.90;99.90
7648;DHT22;3866;48.020;11.720;2023-04-03T02:34:35;1.70;99.90
7648;DHT22;3866;48.020;11.720;2023-04-03T02:37:02;2.00;99.90
7648;DHT22;3866;48.020;11.720;2023-04-03T02:39:29;1.70;99.90
7648;DHT22;3866;48.020;11.720;2023-04-03T02:41:57;1.80;99.90
7648;DHT22;3866;48.020;11.720;2023-04-03T02:44:24;1.70;99.90
7648;DHT22;3866;48.020;11.720;2023-04-03T02:46:51;1.70;99.90
7648;DHT22;3866;48.020;11.720;2023-04-03T02:49:18;1.70;99.90
7648;DHT22;3866;48.020;11.720;2023-04-03T02:51:44;1.70;99.90
7648;DHT22;3866;48.020;11.720;2023-04-03T02:54:11;2.00;99.90
7648;DHT22;3866;48.020;11.720;2023-04-03T02:56:38;1.70;99.90
7648;DHT22;3866;48.020;11.720;2023-04-03T02:59:07;1.60;99.90
7648;DHT22;3866;48.020;11.720;2023-04-03T03:01:34;1.70;99.90
7648;DHT22;3866;48.020;11.720;2023-04-03T03:04:01;1.90;99.90
7648;DHT22;3866;48.020;11.720;2023-04-03T03:06:28;1.70;99.90
7648;DHT22;3866;48.020;11.720;2023-04-03T03:08:55;1.80;99.90
7648;DHT22;3866;48.020;11.720;2023-04-03T03:11:22;1.90;99.90
7648;DHT22;3866;48.020;11.720;2023-04-03T03:13:49;1.80;99.90
7648;DHT22;3866;48.020;11.720;2023-04-03T03:16:17;1.90;99.90
7648;DHT22;3866;48.020;11.720;2023-04-03T03:18:44;1.80;99.90
7648;DHT22;3866;48.020;11.720;2023-04-03T03:21:11;1.70;99.90
7648;DHT22;3866;48.020;11.720;2023-04-03T03:23:38;1.70;99.90
7648;DHT22;3866;48.020;11.720;2023-04-03T03:26:07;1.70;99.90
7648;DHT22;3866;48.020;11.720;2023-04-03T03:28:35;1.70;99.90
7648;DHT22;3866;48.020;11.720;2023-04-03T03:31:03;1.70;99.90
7648;DHT22;3866;48.020;11.720;2023-04-03T03:33:32;1.70;99.90
7648;DHT22;3866;48.020;11.720;2023-04-03T03:35:59;1.70;99.90
7648;DHT22;3866;48.020;11.720;2023-04-03T03:38:26;1.70;99.90
7648;DHT22;3866;48.020;11.720;2023-04-03T03:40:53;1.60;99.90
7648;DHT22;3866;48.020;11.720;2023-04-03T03:43:20;1.70;99.90
7648;DHT22;3866;48.020;11.720;2023-04-03T03:45:50;1.90;99.90
7648;DHT22;3866;48.020;11.720;2023-04-03T03:48:18;1.80;99.90
7648;DHT22;3866;48.020;11.720;2023-04-03T03:50:46;1.80;99.90
7648;DHT22;3866;48.020;11.720;2023-04-03T03:53:14;1.70;99.90
7648;DHT22;3866;48.020;11.720;2023-04-03T03:55:41;1.70;99.90
7648;DHT22;3866;48.020;11.720;2023-04-03T03:58:08;1.60;99.90
7648;DHT22;3866;48.020;11.720;2023-04-03T04:00:36;1.70;99.90
7648;DHT22;3866;48.020;11.720;2023-04-03T04:03:03;1.90;99.90
7648;DHT22;3866;48.020;11.720;2023-04-03T04:05:30;1.70;99.90
7648;DHT22;3866;48.020;11.720;2023-04-03T04:07:58;2.00;99.90
7648;DHT22;3866;48.020;11.720;2023-04-03T04:10:25;2.00;99.90
7648;DHT22;3866;48.020;11.720;2023-04-03T04:12:52;2.00;99.90
7648;DHT22;3866;48.020;11.720;2023-04-03T04:15:19;1.90;99.90
7648;DHT22;3866;48.020;11.720;2023-04-03T04:17:47;1.80;99.90
7648;DHT22;3866;48.020;11.720;2023-04-03T04:20:14;1.80;99.90
7648;DHT22;3866;48.020;11.720;2023-04-03T04:22:41;2.00;99.90
7648;DHT22;3866;48.020;11.720;2023-04-03T04:25:09;1.90;99.90
7648;DHT22;3866;48.020;11.720;2023-04-03T04:27:36;1.70;99.90
7648;DHT22;3866;48.020;11.720;2023-04-03T04:30:04;1.80;99.90
7648;DHT22;3866;48.020;11.720;2023-04-03T04:32:31;1.80;99.90
7648;DHT22;3866;48.020;11.720;2023-04-03T04:34:58;1.80;99.90
7648;DHT22;3866;48.020;11.720;2023-04-03T04:37:25;1.70;99.90
7648;DHT22;3866;48.020;11.720;2023-04-03T04:39:52;1.80;99.90
7648;DHT22;3866;48.020;11.720;2023-04-03T04:42:21;1.80;99.90
7648;DHT22;3866;48.020;11.720;2023-04-03T04:44:47;1.90;99.90
7648;DHT22;3866;48.020;11.720;2023-04-03T04:47:15;1.70;99.90
7648;DHT22;3866;48.020;11.720;2023-04-03T04:49:41;1.80;99.90
7648;DHT22;3866;48.020;11.720;2023-04-03T04:52:08;1.70;99.90
7648;DHT22;3866;48.020;11.720;2023-04-03T04:54:35;1.80;99.90
7648;DHT22;3866;48.020;11.720;2023-04-03T04:57:02;1.60;99.90
7648;DHT22;3866;48.020;11.720;2023-04-03T04:59:30;1.80;99.90
7648;DHT22;3866;48.020;11.720;2023-04-03T05:01:57;1.80;99.90
7648;DHT22;3866;48.020;11.720;2023-04-03T05:04:24;1.60;99.90
7648;DHT22;3866;48.020;11.720;2023-04-03T05:06:51;1.60;99.90
7648;DHT22;3866;48.020;11.720;2023-04-03T05:09:18;1.70;99.90
7648;DHT22;3866;48.020;11.720;2023-04-03T05:11:46;1.50;99.90
7648;DHT22;3866;48.020;11.720;2023-04-03T05:14:12;1.60;99.90
7648;DHT22;3866;48.020;11.720;2023-04-03T05:16:41;1.60;99.90
7648;DHT22;3866;48.020;11.720;2023-04-03T05:19:08;1.60;99.90
7648;DHT22;3866;48.020;11.720;2023-04-03T05:21:35;1.80;99.90
7648;DHT22;3866;48.020;11.720;2023-04-03T05:24:02;1.60;99.90
7648;DHT22;3866;48.020;11.720;2023-04-03T05:26:29;1.70;99.90
7648;DHT22;3866;48.020;11.720;2023-04-03T05:28:56;1.60;99.90
7648;DHT22;3866;48.020;11.720;2023-04-03T05:31:23;1.60;99.90
7648;DHT22;3866;48.020;11.720;2023-04-03T05:33:52;1.80;99.90
7648;DHT22;3866;48.020;11.720;2023-04-03T05:36:18;1.70;99.90
7648;DHT22;3866;48.020;11.720;2023-04-03T05:38:45;1.60;99.90
7648;DHT22;3866;48.020;11.720;2023-04-03T05:41:12;1.50;99.90
7648;DHT22;3866;48.020;11.720;2023-04-03T05:43:39;1.80;99.90
7648;DHT22;3866;48.020;11.720;2023-04-03T05:46:09;1.90;99.90
7648;DHT22;3866;48.020;11.720;2023-04-03T05:48:36;1.80;99.90
7648;DHT22;3866;48.020;11.720;2023-04-03T05:51:06;1.80;99.90
7648;DHT22;3866;48.020;11.720;2023-04-03T05:53:35;1.70;99.90
7648;DHT22;3866;48.020;11.720;2023-04-03T05:56:03;1.80;99.90
7648;DHT22;3866;48.020;11.720;2023-04-03T05:58:29;1.80;99.90
7648;DHT22;3866;48.020;11.720;2023-04-03T06:00:57;1.80;99.90
7648;DHT22;3866;48.020;11.720;2023-04-03T06:03:24;1.70;99.90
7648;DHT22;3866;48.020;11.720;2023-04-03T06:05:51;1.70;99.90
7648;DHT22;3866;48.020;11.720;2023-04-03T06:08:19;1.60;99.90
7648;DHT22;3866;48.020;11.720;2023-04-03T06:10:46;1.80;99.90
7648;DHT22;3866;48.020;11.720;2023-04-03T06:13:13;1.60;99.90
7648;DHT22;3866;48.020;11.720;2023-04-03T06:15:40;1.70;99.90
7648;DHT22;3866;48.020;11.720;2023-04-03T06:18:07;1.60;99.90
7648;DHT22;3866;48.020;11.720;2023-04-03T06:20:35;1.90;99.90
7648;DHT22;3866;48.020;11.720;2023-04-03T06:23:02;1.80;99.90
7648;DHT22;3866;48.020;11.720;2023-04-03T06:25:30;1.70;99.90
7648;DHT22;3866;48.020;11.720;2023-04-03T06:27:57;1.90;99.90
7648;DHT22;3866;48.020;11.720;2023-04-03T06:30:24;2.00;99.90
7648;DHT22;3866;48.020;11.720;2023-04-03T06:32:51;1.80;99.90
7648;DHT22;3866;48.020;11.720;2023-04-03T06:35:18;1.90;99.90
7648;DHT22;3866;48.020;11.720;2023-04-03T06:37:46;1.80;99.90
7648;DHT22;3866;48.020;11.720;2023-04-03T06:40:19;1.90;99.90
7648;DHT22;3866;48.020;11.720;2023-04-03T06:42:48;1.80;99.90
7648;DHT22;3866;48.020;11.720;2023-04-03T06:45:15;1.80;99.90
7648;DHT22;3866;48.020;11.720;2023-04-03T06:47:43;1.90;99.90
7648;DHT22;3866;48.020;11.720;2023-04-03T06:50:11;1.80;99.90
7648;DHT22;3866;48.020;11.720;2023-04-03T06:52:40;1.80;99.90
7648;DHT22;3866;48.020;11.720;2023-04-03T06:55:08;1.70;99.90
7648;DHT22;3866;48.020;11.720;2023-04-03T06:57:35;1.80;99.90
7648;DHT22;3866;48.020;11.720;2023-04-03T07:00:05;1.80;99.90
7648;DHT22;3866;48.020;11.720;2023-04-03T07:02:33;1.90;99.90
7648;DHT22;3866;48.020;11.720;2023-04-03T07:05:00;1.80;99.90
7648;DHT22;3866;48.020;11.720;2023-04-03T07:07:27;1.80;99.90
7648;DHT22;3866;48.020;11.720;2023-04-03T07:09:54;1.80;99.90
7648;DHT22;3866;48.020;11.720;2023-04-03T07:12:20;1.90;99.90
7648;DHT22;3866;48.020;11.720;2023-04-03T07:14:47;2.00;99.90
7648;DHT22;3866;48.020;11.720;2023-04-03T07:17:15;2.20;99.90
7648;DHT22;3866;48.020;11.720;2023-04-03T07:19:42;2.30;99.90
7648;DHT22;3866;48.020;11.720;2023-04-03T07:22:09;2.30;99.90
7648;DHT22;3866;48.020;11.720;2023-04-03T07:24:37;2.30;99.90
7648;DHT22;3866;48.020;11.720;2023-04-03T07:27:05;2.40;99.90
7648;DHT22;3866;48.020;11.720;2023-04-03T07:29:34;2.40;99.90
7648;DHT22;3866;48.020;11.720;2023-04-03T07:32:01;2.40;99.90
7648;DHT22;3866;48.020;11.720;2023-04-03T07:34:29;2.40;99.90
7648;DHT22;3866;48.020;11.720;2023-04-03T07:36:56;2.40;99.90
7648;DHT22;3866;48.020;11.720;2023-04-03T07:39:23;2.40;99.90
7648;DHT22;3866;48.020;11.720;2023-04-03T07:41:50;2.60;99.90
7648;DHT22;3866;48.020;11.720;2023-04-03T07:44:17;2.70;99.90
7648;DHT22;3866;48.020;11.720;2023-04-03T07:46:44;2.60;99.90
7648;DHT22;3866;48.020;11.720;2023-04-03T07:49:12;2.60;99.90
7648;DHT22;3866;48.020;11.720;2023-04-03T07:51:40;2.50;99.90
7648;DHT22;3866;48.020;11.720;2023-04-03T07:54:07;2.50;99.90
7648;DHT22;3866;48.020;11.720;2023-04-03T07:56:34;2.50;99.90
7648;DHT22;3866;48.020;11.720;2023-04-03T07:59:01;2.60;99.90
7648;DHT22;3866;48.020;11.720;2023-04-03T08:01:28;2.60;99.90
7648;DHT22;3866;48.020;11.720;2023-04-03T08:03:58;2.70;99.90
7648;DHT22;3866;48.020;11.720;2023-04-03T08:06:24;2.60;99.90
7648;DHT22;3866;48.020;11.720;2023-04-03T08:08:53;2.40;99.90
7648;DHT22;3866;48.020;11.720;2023-04-03T08:11:20;2.40;99.90
7648;DHT22;3866;48.020;11.720;2023-04-03T08:13:47;2.50;99.90
7648;DHT22;3866;48.020;11.720;2023-04-03T08:16:18;2.60;99.90
7648;DHT22;3866;48.020;11.720;2023-04-03T08:18:47;2.70;99.90
7648;DHT22;3866;48.020;11.720;2023-04-03T08:21:14;2.70;99.90
7648;DHT22;3866;48.020;11.720;2023-04-03T08:23:41;2.90;99.90
7648;DHT22;3866;48.020;11.720;2023-04-03T08:26:11;2.90;99.90
7648;DHT22;3866;48.020;11.720;2023-04-03T08:28:39;2.90;99.90
7648;DHT22;3866;48.020;11.720;2023-04-03T08:31:08;2.90;99.90
7648;DHT22;3866;48.020;11.720;2023-04-03T08:33:37;2.90;99.90
7648;DHT22;3866;48.020;11.720;2023-04-03T08:36:05;2.80;99.90
7648;DHT22;3866;48.020;11.720;2023-04-03T08:38:33;2.80;99.90
7648;DHT22;3866;48.020;11.720;2023-04-03T08:41:14;2.90;99.90
7648;DHT22;3866;48.020;11.720;2023-04-03T08:43:55;2.80;99.90
7648;DHT22;3866;48.020;11.720;2023-04-03T08:46:26;2.90;99.90
7648;DHT22;3866;48.020;11.720;2023-04-03T08:48:58;2.80;99.90
7648;DHT22;3866;48.020;11.720;2023-04-03T08:51:26;2.80;99.90
7648;DHT22;3866;48.020;11.720;2023-04-03T08:53:56;2.90;99.90
7648;DHT22;3866;48.020;11.720;2023-04-03T08:56:27;2.80;99.90
7648;DHT22;3866;48.020;11.720;2023-04-03T08:58:57;2.80;99.90
7648;DHT22;3866;48.020;11.720;2023-04-03T09:01:28;2.90;99.90
7648;DHT22;3866;48.020;11.720;2023-04-03T09:03:56;3.00;99.90
7648;DHT22;3866;48.020;11.720;2023-04-03T09:06:26;2.90;99.90
7648;DHT22;3866;48.020;11.720;2023-04-03T09:09:06;3.20;99.90
7648;DHT22;3866;48.020;11.720;2023-04-03T09:11:44;3.10;99.90
7648;DHT22;3866;48.020;11.720;2023-04-03T09:14:18;3.10;99.90
7648;DHT22;3866;48.020;11.720;2023-04-03T09:16:52;3.10;99.90
7648;DHT22;3866;48.020;11.720;2023-04-03T09:19:28;3.10;99.90
7648;DHT22;3866;48.020;11.720;2023-04-03T09:22:09;3.30;99.90
7648;DHT22;3866;48.020;11.720;2023-04-03T09:24:39;3.40;99.90
7648;DHT22;3866;48.020;11.720;2023-04-03T09:27:10;3.40;99.90
7648;DHT22;3866;48.020;11.720;2023-04-03T09:29:39;3.40;99.90
7648;DHT22;3866;48.020;11.720;2023-04-03T09:32:19;3.40;99.90
7648;DHT22;3866;48.020;11.720;2023-04-03T09:34:48;3.40;99.90
7648;DHT22;3866;48.020;11.720;2023-04-03T09:37:38;3.40;99.90
7648;DHT22;3866;48.020;11.720;2023-04-03T09:40:27;3.40;99.90
7648;DHT22;3866;48.020;11.720;2023-04-03T09:42:57;3.40;99.90
7648;DHT22;3866;48.020;11.720;2023-04-03T09:45:27;3.70;99.90
7648;DHT22;3866;48.020;11.720;2023-04-03T09:48:08;3.90;99.90
7648;DHT22;3866;48.020;11.720;2023-04-03T09:50:53;4.10;99.90
7648;DHT22;3866;48.020;11.720;2023-04-03T09:53:33;3.80;99.90
7648;DHT22;3866;48.020;11.720;2023-04-03T09:56:02;3.80;99.90
7648;DHT22;3866;48.020;11.720;2023-04-03T09:58:33;3.90;99.90
7648;DHT22;3866;48.020;11.720;2023-04-03T10:01:03;4.00;99.90
7648;DHT22;3866;48.020;11.720;2023-04-03T10:03:32;4.10;99.90
7648;DHT22;3866;48.020;11.720;2023-04-03T10:06:01;4.10;99.90
7648;DHT22;3866;48.020;11.720;2023-04-03T10:08:29;3.90;99.90
7648;DHT22;3866;48.020;11.720;2023-04-03T10:11:10;3.70;99.90
7648;DHT22;3866;48.020;11.720;2023-04-03T10:13:50;3.60;99.90
7648;DHT22;3866;48.020;11.720;2023-04-03T10:16:19;3.60;99.90
7648;DHT22;3866;48.020;11.720;2023-04-03T10:18:53;3.50;99.90
7648;DHT22;3866;48.020;11.720;2023-04-03T10:21:33;3.30;99.90
7648;DHT22;3866;48.020;11.720;2023-04-03T10:24:08;3.60;99.90
7648;DHT22;3866;48.020;11.720;2023-04-03T10:26:41;3.50;99.90
7648;DHT22;3866;48.020;11.720;2023-04-03T10:29:23;3.30;99.90
7648;DHT22;3866;48.020;11.720;2023-04-03T10:32:01;3.50;99.90
7648;DHT22;3866;48.020;11.720;2023-04-03T10:34:35;3.70;99.90
7648;DHT22;3866;48.020;11.720;2023-04-03T10:37:08;3.80;99.90
7648;DHT22;3866;48.020;11.720;2023-04-03T10:39:45;3.90;99.90
7648;DHT22;3866;48.020;11.720;2023-04-03T10:42:18;3.90;99.90
7648;DHT22;3866;48.020;11.720;2023-04-03T10:45:01;3.70;99.90
7648;DHT22;3866;48.020;11.720;2023-04-03T10:47:36;3.70;99.90
7648;DHT22;3866;48.020;11.720;2023-04-03T10:50:22;3.80;99.90
7648;DHT22;3866;48.020;11.720;2023-04-03T10:52:59;3.90;99.90
7648;DHT22;3866;48.020;11.720;2023-04-03T10:55:34;4.20;99.90
7648;DHT22;3866;48.020;11.720;2023-04-03T10:58:04;4.10;99.90
7648;DHT22;3866;48.020;11.720;2023-04-03T11:00:38;3.80;99.90
7648;DHT22;3866;48.020;11.720;2023-04-03T11:03:10;3.70;99.90
7648;DHT22;3866;48.020;11.720;2023-04-03T11:05:42;3.70;99.90
7648;DHT22;3866;48.020;11.720;2023-04-03T11:08:17;3.80;99.90
7648;DHT22;3866;48.020;11.720;2023-04-03T11:10:48;3.80;99.90
7648;DHT22;3866;48.020;11.720;2023-04-03T11:13:21;3.90;99.90
7648;DHT22;3866;48.020;11.720;2023-04-03T11:15:51;4.00;99.90
7648;DHT22;3866;48.020;11.720;2023-04-03T11:18:21;3.80;99.90
7648;DHT22;3866;48.020;11.720;2023-04-03T11:20:58;3.90;99.90
7648;DHT22;3866;48.020;11.720;2023-04-03T11:23:30;3.50;99.90
7648;DHT22;3866;48.020;11.720;2023-04-03T11:26:07;3.20;99.90
7648;DHT22;3866;48.020;11.720;2023-04-03T11:28:35;3.20;99.90
7648;DHT22;3866;48.020;11.720;2023-04-03T11:31:21;2.60;99.90
7648;DHT22;3866;48.020;11.720;2023-04-03T11:33:58;2.30;99.90
7648;DHT22;3866;48.020;11.720;2023-04-03T11:36:31;2.20;99.90
7648;DHT22;3866;48.020;11.720;2023-04-03T11:39:02;2.30;99.90
7648;DHT22;3866;48.020;11.720;2023-04-03T11:41:33;2.50;99.90
7648;DHT22;3866;48.020;11.720;2023-04-03T11:44:03;2.60;99.90
7648;DHT22;3866;48.020;11.720;2023-04-03T11:46:50;2.80;99.90
7648;DHT22;3866;48.020;11.720;2023-04-03T11:49:50;3.10;99.90
7648;DHT22;3866;48.020;11.720;2023-04-03T11:55:55;3.20;99.90
7648;DHT22;3866;48.020;11.720;2023-04-03T11:58:23;3.30;99.90
7648;DHT22;3866;48.020;11.720;2023-04-03T12:00:56;3.30;99.90
7648;DHT22;3866;48.020;11.720;2023-04-03T12:10:16;3.40;99.90
7648;DHT22;3866;48.020;11.720;2023-04-03T12:12:55;3.20;99.90
7648;DHT22;3866;48.020;11.720;2023-04-03T12:18:48;3.30;99.90
7648;DHT22;3866;48.020;11.720;2023-04-03T12:21:22;3.20;99.90
7648;DHT22;3866;48.020;11.720;2023-04-03T12:24:01;3.50;99.90
7648;DHT22;3866;48.020;11.720;2023-04-03T12:26:32;3.40;99.90
7648;DHT22;3866;48.020;11.720;2023-04-03T12:29:13;3.40;99.90
7648;DHT22;3866;48.020;11.720;2023-04-03T12:31:48;3.40;99.90
7648;DHT22;3866;48.020;11.720;2023-04-03T12:34:30;3.50;99.90
7648;DHT22;3866;48.020;11.720;2023-04-03T12:37:05;3.40;99.90
7648;DHT22;3866;48.020;11.720;2023-04-03T12:39:44;3.30;99.90
7648;DHT22;3866;48.020;11.720;2023-04-03T12:42:37;3.30;99.90
7648;DHT22;3866;48.020;11.720;2023-04-03T12:45:16;3.10;99.90
7648;DHT22;3866;48.020;11.720;2023-04-03T12:47:45;3.20;99.90
7648;DHT22;3866;48.020;11.720;2023-04-03T12:50:21;3.10;99.90
7648;DHT22;3866;48.020;11.720;2023-04-03T12:52:54;3.20;99.90
7648;DHT22;3866;48.020;11.720;2023-04-03T12:55:22;3.20;99.90
7648;DHT22;3866;48.020;11.720;2023-04-03T12:57:49;3.20;99.90
7648;DHT22;3866;48.020;11.720;2023-04-03T13:00:30;3.20;99.90
7648;DHT22;3866;48.020;11.720;2023-04-03T13:02:58;3.30;99.90
7648;DHT22;3866;48.020;11.720;2023-04-03T13:05:28;3.40;99.90
7648;DHT22;3866;48.020;11.720;2023-04-03T13:07:59;3.30;99.90
7648;DHT22;3866;48.020;11.720;2023-04-03T13:10:27;3.50;99.90
7648;DHT22;3866;48.020;11.720;2023-04-03T13:12:56;3.70;99.90
7648;DHT22;3866;48.020;11.720;2023-04-03T13:15:25;3.60;99.90
7648;DHT22;3866;48.020;11.720;2023-04-03T13:17:53;3.80;99.90
7648;DHT22;3866;48.020;11.720;2023-04-03T13:20:28;4.10;99.90
7648;DHT22;3866;48.020;11.720;2023-04-03T13:22:58;3.90;99.90
7648;DHT22;3866;48.020;11.720;2023-04-03T13:25:31;3.60;99.90
7648;DHT22;3866;48.020;11.720;2023-04-03T13:28:04;3.90;99.90
7648;DHT22;3866;48.020;11.720;2023-04-03T13:30:32;4.10;99.90
7648;DHT22;3866;48.020;11.720;2023-04-03T13:33:03;4.20;99.90
7648;DHT22;3866;48.020;11.720;2023-04-03T13:35:36;4.70;99.90
7648;DHT22;3866;48.020;11.720;2023-04-03T13:38:20;4.60;99.90
7648;DHT22;3866;48.020;11.720;2023-04-03T13:40:49;4.70;99.90
7648;DHT22;3866;48.020;11.720;2023-04-03T13:43:19;4.50;99.90
7648;DHT22;3866;48.020;11.720;2023-04-03T13:45:59;4.60;99.90
7648;DHT22;3866;48.020;11.720;2023-04-03T13:48:26;4.80;99.90
7648;DHT22;3866;48.020;11.720;2023-04-03T13:50:58;5.00;99.90
7648;DHT22;3866;48.020;11.720;2023-04-03T13:53:27;5.40;99.90
7648;DHT22;3866;48.020;11.720;2023-04-03T13:56:05;5.70;99.90
7648;DHT22;3866;48.020;11.720;2023-04-03T13:58:34;5.80;99.90
7648;DHT22;3866;48.020;11.720;2023-04-03T14:01:08;6.00;99.90
7648;DHT22;3866;48.020;11.720;2023-04-03T14:03:42;5.60;99.90
7648;DHT22;3866;48.020;11.720;2023-04-03T14:06:15;5.60;99.90
7648;DHT22;3866;48.020;11.720;2023-04-03T14:08:42;5.40;99.90
7648;DHT22;3866;48.020;11.720;2023-04-03T14:11:13;5.50;99.90
7648;DHT22;3866;48.020;11.720;2023-04-03T14:13:41;5.40;99.90
7648;DHT22;3866;48.020;11.720;2023-04-03T14:16:13;5.20;99.90
7648;DHT22;3866;48.020;11.720;2023-04-03T14:18:41;5.10;99.90
7648;DHT22;3866;48.020;11.720;2023-04-03T14:21:12;4.90;99.90
7648;DHT22;3866;48.020;11.720;2023-04-03T14:23:39;4.70;99.90
7648;DHT22;3866;48.020;11.720;2023-04-03T14:26:11;4.50;99.90
7648;DHT22;3866;48.020;11.720;2023-04-03T14:28:39;4.50;99.90
7648;DHT22;3866;48.020;11.720;2023-04-03T14:31:06;4.30;99.90
7648;DHT22;3866;48.020;11.720;2023-04-03T14:33:33;4.20;99.90
7648;DHT22;3866;48.020;11.720;2023-04-03T14:36:12;4.30;99.90
7648;DHT22;3866;48.020;11.720;2023-04-03T14:38:40;4.20;99.90
7648;DHT22;3866;48.020;11.720;2023-04-03T14:41:07;4.00;99.90
7648;DHT22;3866;48.020;11.720;2023-04-03T14:43:36;4.00;99.90
7648;DHT22;3866;48.020;11.720;2023-04-03T14:46:04;4.00;99.90
7648;DHT22;3866;48.020;11.720;2023-04-03T14:48:32;4.00;99.90
7648;DHT22;3866;48.020;11.720;2023-04-03T14:50:59;4.00;99.90
7648;DHT22;3866;48.020;11.720;2023-04-03T14:53:27;4.10;99.90
7648;DHT22;3866;48.020;11.720;2023-04-03T14:55:55;4.30;99.90
7648;DHT22;3866;48.020;11.720;2023-04-03T14:58:22;4.20;99.90
7648;DHT22;3866;48.020;11.720;2023-04-03T15:00:49;4.30;99.90
7648;DHT22;3866;48.020;11.720;2023-04-03T15:03:17;4.20;99.90
7648;DHT22;3866;48.020;11.720;2023-04-03T15:05:44;4.30;99.90
7648;DHT22;3866;48.020;11.720;2023-04-03T15:08:19;4.30;99.90
7648;DHT22;3866;48.020;11.720;2023-04-03T15:10:48;4.30;99.90
7648;DHT22;3866;48.020;11.720;2023-04-03T15:13:15;4.30;99.90
7648;DHT22;3866;48.020;11.720;2023-04-03T15:15:42;4.40;99.90
7648;DHT22;3866;48.020;11.720;2023-04-03T15:18:14;4.30;99.90
7648;DHT22;3866;48.020;11.720;2023-04-03T15:20:41;4.40;99.90
7648;DHT22;3866;48.020;11.720;2023-04-03T15:23:10;4.40;99.90
7648;DHT22;3866;48.020;11.720;2023-04-03T15:25:36;4.40;99.90
7648;DHT22;3866;48.020;11.720;2023-04-03T15:28:08;4.40;99.90
7648;DHT22;3866;48.020;11.720;2023-04-03T15:30:37;4.50;99.90
7648;DHT22;3866;48.020;11.720;2023-04-03T15:33:05;4.40;99.90
7648;DHT22;3866;48.020;11.720;2023-04-03T15:35:32;4.40;99.90
7648;DHT22;3866;48.020;11.720;2023-04-03T15:38:00;4.70;99.90
7648;DHT22;3866;48.020;11.720;2023-04-03T15:40:28;4.70;99.90
7648;DHT22;3866;48.020;11.720;2023-04-03T15:42:55;4.70;99.90
7648;DHT22;3866;48.020;11.720;2023-04-03T15:45:23;4.60;99.90
7648;DHT22;3866;48.020;11.720;2023-04-03T15:47:50;4.70;99.90
7648;DHT22;3866;48.020;11.720;2023-04-03T15:50:17;4.70;99.90
7648;DHT22;3866;48.020;11.720;2023-04-03T15:52:44;4.90;99.90
7648;DHT22;3866;48.020;11.720;2023-04-03T15:55:11;4.80;99.90
7648;DHT22;3866;48.020;11.720;2023-04-03T15:57:38;4.80;99.90
7648;DHT22;3866;48.020;11.720;2023-04-03T16:00:06;4.70;99.90
7648;DHT22;3866;48.020;11.720;2023-04-03T16:02:35;4.80;99.90
7648;DHT22;3866;48.020;11.720;2023-04-03T16:05:02;4.80;99.90
7648;DHT22;3866;48.020;11.720;2023-04-03T16:07:30;4.80;99.90
7648;DHT22;3866;48.020;11.720;2023-04-03T16:09:57;4.90;99.90
7648;DHT22;3866;48.020;11.720;2023-04-03T16:12:24;4.90;99.90
7648;DHT22;3866;48.020;11.720;2023-04-03T16:14:50;4.80;99.90
7648;DHT22;3866;48.020;11.720;2023-04-03T16:17:18;4.80;99.90
7648;DHT22;3866;48.020;11.720;2023-04-03T16:19:47;4.50;99.90
7648;DHT22;3866;48.020;11.720;2023-04-03T16:22:14;4.50;99.90
7648;DHT22;3866;48.020;11.720;2023-04-03T16:24:41;4.40;99.90
7648;DHT22;3866;48.020;11.720;2023-04-03T16:27:08;4.30;99.90
7648;DHT22;3866;48.020;11.720;2023-04-03T16:29:35;4.30;99.90
7648;DHT22;3866;48.020;11.720;2023-04-03T16:32:02;4.20;99.90
7648;DHT22;3866;48.020;11.720;2023-04-03T16:34:29;4.10;99.90